Time;durP1;ratioP1;P1;durP2;ratioP2;P2;SDS_P1;SDS_P2;PMS_P1;PMS_P2;Temp;Humidity;BMP_temperature;BMP_pressure;BME280_temperature;BME280_humidity;BME280_pressure;Samples;Min_cycle;Max_cycle;Signal;HPM_P1;HPM_P2
2021/06/28 00:04:21;;;;;;;10.17;8.00;;;;;;;13.11;69.46;99948.53;256271;1104;115476;-72
2021/06/28 00:09:24;;;;;;;7.13;6.33;;;;;;;13.09;69.45;99950.64;256515;1104;115045;-72
2021/06/28 00:14:27;;;;;;;8.10;6.17;;;;;;;12.99;69.59;99951.29;254273;1104;115232;-72
2021/06/28 00:19:30;;;;;;;6.10;5.60;;;;;;;12.92;69.68;99947.97;254444;1104;115615;-71
2021/06/28 00:24:33;;;;;;;9.30;6.20;;;;;;;12.91;69.79;99949.02;254113;1104;116871;-71
2021/06/28 00:29:36;;;;;;;7.73;7.03;;;;;;;12.82;70.00;99942.48;254392;1104;116810;-71
2021/06/28 00:34:44;;;;;;;8.03;5.40;;;;;;;12.71;70.03;99943.36;254976;1104;115416;-70
2021/06/28 00:39:51;;;;;;;5.25;4.43;;;;;;;12.54;69.93;99942.53;254719;1104;116770;-71
2021/06/28 00:44:55;;;;;;;8.00;6.98;;;;;;;12.47;70.07;99948.06;254363;1104;115387;-70
2021/06/28 00:49:59;;;;;;;8.63;6.68;;;;;;;12.45;70.62;99944.81;254435;1104;115420;-70
2021/06/28 00:55:03;;;;;;;7.35;6.28;;;;;;;12.51;71.06;99949.20;254457;1104;115610;-71
2021/06/28 01:00:09;;;;;;;6.27;5.67;;;;;;;12.53;71.16;99949.77;254889;1104;115407;-71
2021/06/28 01:05:18;;;;;;;6.35;5.53;;;;;;;12.44;70.71;99941.33;254511;1104;114988;-72
2021/06/28 01:10:22;;;;;;;7.55;5.30;;;;;;;12.36;71.00;99941.72;254427;1099;115800;-71
2021/06/28 01:15:26;;;;;;;9.85;5.70;;;;;;;12.31;70.77;99941.63;254568;1103;115508;-71
2021/06/28 01:20:30;;;;;;;9.18;6.20;;;;;;;12.27;71.24;99937.81;254403;1104;116503;-72
2021/06/28 01:25:33;;;;;;;8.20;6.03;;;;;;;12.29;71.63;99941.05;255093;1104;115812;-71
2021/06/28 01:30:38;;;;;;;8.28;5.70;;;;;;;12.29;71.52;99940.24;255587;1104;115581;-72
2021/06/28 01:35:42;;;;;;;6.48;4.65;;;;;;;12.22;71.27;99936.94;255239;1103;115667;-71
2021/06/28 01:40:47;;;;;;;6.13;5.10;;;;;;;12.13;71.88;99939.98;254386;1104;115556;-72
2021/06/28 01:45:52;;;;;;;6.85;5.40;;;;;;;11.99;71.64;99948.52;255330;1103;115387;-71
2021/06/28 01:50:56;;;;;;;5.25;4.75;;;;;;;11.96;71.98;99938.30;254554;1104;115060;-71
2021/06/28 01:56:04;;;;;;;6.53;5.53;;;;;;;11.95;71.94;99944.70;255035;1104;115914;-72
2021/06/28 02:01:12;;;;;;;6.35;5.75;;;;;;;11.96;72.19;99946.32;254493;1103;115422;-71
2021/06/28 02:06:15;;;;;;;7.85;7.05;;;;;;;11.95;72.20;99952.71;255652;1104;120482;-71
2021/06/28 02:11:18;;;;;;;6.80;5.38;;;;;;;11.94;72.28;99951.09;255049;1104;115559;-71
2021/06/28 02:16:22;;;;;;;7.20;5.40;;;;;;;11.91;72.29;99954.27;255921;1104;115138;-71
2021/06/28 02:21:26;;;;;;;12.35;5.68;;;;;;;11.86;72.02;99948.81;255067;1104;115430;-70
2021/06/28 02:26:32;;;;;;;6.53;5.70;;;;;;;11.75;72.16;99951.25;254714;1104;115754;-72
2021/06/28 02:31:36;;;;;;;5.13;4.63;;;;;;;11.65;72.30;99959.05;254337;1104;115806;-71
2021/06/28 02:36:40;;;;;;;9.35;4.85;;;;;;;11.56;72.43;99948.98;255257;1103;115230;-72
2021/06/28 02:41:44;;;;;;;9.45;5.83;;;;;;;11.57;72.28;99946.09;254295;1104;115080;-71
2021/06/28 02:46:50;;;;;;;;;;;;;;;11.59;72.68;99945.85;254350;1104;115788;-71
2021/06/28 02:51:53;;;;;;;10.28;6.75;;;;;;;11.62;73.18;99937.34;255442;1103;103029;-71
2021/06/28 02:56:57;;;;;;;6.28;5.73;;;;;;;11.68;73.06;99939.07;254283;1104;115093;-72
2021/06/28 03:02:00;;;;;;;9.00;5.90;;;;;;;11.65;73.39;99929.67;254319;1104;115883;-72
2021/06/28 03:07:03;;;;;;;13.65;6.58;;;;;;;11.66;73.28;99931.30;254243;1104;115772;-71
2021/06/28 03:12:07;;;;;;;8.53;7.20;;;;;;;11.71;73.37;99922.58;254249;1104;115272;-70
2021/06/28 03:17:11;;;;;;;12.43;6.98;;;;;;;11.82;73.48;99934.31;254514;1104;116025;-71
2021/06/28 03:22:16;;;;;;;13.43;5.88;;;;;;;11.85;73.46;99925.83;255072;1098;114573;-72
2021/06/28 03:27:19;;;;;;;8.43;5.25;;;;;;;11.89;73.76;99924.30;254325;1104;116289;-72
2021/06/28 03:32:24;;;;;;;12.95;7.90;;;;;;;11.96;73.89;99940.98;254405;1104;114929;-72
2021/06/28 03:37:30;;;;;;;13.53;7.57;;;;;;;12.13;74.13;99933.83;254642;1100;116144;-72
2021/06/28 03:42:37;;;;;;;20.00;9.57;;;;;;;12.37;73.90;99937.99;254388;1103;115095;-72
2021/06/28 03:47:43;;;;;;;7.93;6.80;;;;;;;12.58;73.89;99935.65;255487;1099;115928;-72
2021/06/28 03:52:47;;;;;;;6.68;6.08;;;;;;;12.68;73.80;99944.66;256844;1103;114885;-71
2021/06/28 03:57:50;;;;;;;8.50;6.57;;;;;;;13.00;73.64;99936.05;257379;1103;115412;-69
2021/06/28 04:02:55;;;;;;;7.73;6.83;;;;;;;13.36;74.06;99940.06;257407;1103;115437;-72
2021/06/28 04:07:59;;;;;;;7.58;6.93;;;;;;;13.65;73.88;99938.83;257338;1104;115815;-71
2021/06/28 04:13:02;;;;;;;7.10;6.50;;;;;;;13.94;73.90;99935.93;257294;1104;115174;-73
2021/06/28 04:18:05;;;;;;;9.30;7.03;;;;;;;14.21;73.63;99938.61;254495;1104;115208;-73
2021/06/28 04:23:12;;;;;;;8.13;6.23;;;;;;;14.59;73.73;99943.02;256048;1104;115609;-72
2021/06/28 04:28:15;;;;;;;17.40;6.88;;;;;;;15.03;73.92;99940.91;254365;1104;114965;-72
2021/06/28 04:33:23;;;;;;;11.33;6.73;;;;;;;15.59;73.93;99935.89;254232;1104;115839;-72
2021/06/28 04:38:26;;;;;;;5.83;5.23;;;;;;;19.00;69.71;99940.11;254418;1104;115825;-73
2021/06/28 04:43:29;;;;;;;9.45;5.85;;;;;;;23.65;64.66;99944.31;254870;1104;115405;-76
2021/06/28 04:48:33;;;;;;;7.25;5.68;;;;;;;25.00;63.19;99942.27;254519;1104;115294;-75
2021/06/28 04:53:37;;;;;;;6.68;5.78;;;;;;;25.95;59.74;99949.22;254457;1104;115122;-75
2021/06/28 04:58:40;;;;;;;5.45;5.03;;;;;;;25.01;58.92;99953.98;254401;1104;115775;-74
2021/06/28 05:03:43;;;;;;;5.00;4.60;;;;;;;24.35;57.74;99956.93;254966;1104;115565;-75
2021/06/28 05:08:46;;;;;;;4.60;4.17;;;;;;;26.62;54.68;99950.92;254383;1104;115216;-72
2021/06/28 05:13:49;;;;;;;5.90;4.43;;;;;;;28.74;52.59;99956.90;254471;1104;115870;-75
2021/06/28 05:18:54;;;;;;;4.07;3.80;;;;;;;30.79;49.09;99960.16;255332;1103;115914;-70
2021/06/28 05:23:57;;;;;;;6.00;3.05;;;;;;;33.68;45.05;99973.81;254408;1098;115131;-70
2021/06/28 05:29:00;;;;;;;6.05;2.58;;;;;;;35.93;41.50;99972.46;254873;1104;115730;-71
2021/06/28 05:34:04;;;;;;;2.85;2.60;;;;;;;36.81;38.21;99982.44;254698;1103;115489;-70
2021/06/28 05:39:07;;;;;;;2.00;1.90;;;;;;;38.36;36.24;99973.89;255611;1103;115971;-70
2021/06/28 05:44:14;;;;;;;2.70;2.50;;;;;;;38.87;34.51;99977.58;254696;1104;116183;-72
2021/06/28 05:49:23;;;;;;;3.35;2.15;;;;;;;39.00;32.81;99980.58;254231;1104;115391;-74
2021/06/28 05:54:26;;;;;;;2.18;2.08;;;;;;;39.14;31.16;99987.98;254322;1104;114809;-71
2021/06/28 05:59:29;;;;;;;3.10;2.80;;;;;;;39.78;29.70;99984.87;255511;1104;115361;-70
2021/06/28 06:04:33;;;;;;;1.90;1.80;;;;;;;40.25;28.23;99985.58;254153;1100;115962;-71
2021/06/28 06:09:37;;;;;;;3.90;2.03;;;;;;;39.30;27.97;99999.25;256061;1103;116003;-71
2021/06/28 06:14:42;;;;;;;1.90;1.48;;;;;;;38.97;28.47;99998.94;256315;1104;115766;-72
2021/06/28 06:19:45;;;;;;;1.75;1.65;;;;;;;37.19;28.60;100005.60;256795;1103;114811;-72
2021/06/28 06:24:48;;;;;;;3.03;1.93;;;;;;;35.52;29.08;100011.70;255789;1104;117522;-74
2021/06/28 06:29:51;;;;;;;1.98;1.88;;;;;;;35.93;28.73;100019.63;254505;1104;115463;-72
2021/06/28 06:34:54;;;;;;;3.73;1.60;;;;;;;35.80;29.77;100016.46;255118;1104;115324;-76
2021/06/28 06:39:58;;;;;;;1.73;1.63;;;;;;;36.16;28.95;100025.50;254870;1100;115760;-75
2021/06/28 06:45:01;;;;;;;2.10;1.80;;;;;;;34.97;29.38;100025.88;254167;1103;114906;-74
2021/06/28 06:50:04;;;;;;;2.07;1.97;;;;;;;34.18;29.99;100015.64;254336;1104;115663;-75
2021/06/28 06:55:09;;;;;;;3.65;2.53;;;;;;;33.76;29.85;100021.66;254468;1104;115782;-74
2021/06/28 07:00:16;;;;;;;1.78;1.68;;;;;;;33.81;29.92;100026.87;254550;1104;114889;-74
2021/06/28 07:05:20;;;;;;;2.78;2.58;;;;;;;33.05;30.21;100027.32;254305;1104;115370;-76
2021/06/28 07:10:24;;;;;;;2.88;2.55;;;;;;;33.30;30.73;100027.62;254714;1104;115296;-74
2021/06/28 07:15:27;;;;;;;3.18;2.00;;;;;;;33.99;30.29;100035.27;254275;1104;115720;-74
2021/06/28 07:20:29;;;;;;;3.15;2.35;;;;;;;34.62;29.38;100036.81;254319;1104;115138;-74
2021/06/28 07:25:32;;;;;;;4.87;2.20;;;;;;;35.04;30.31;100039.75;254749;1104;115491;-79
2021/06/28 07:30:35;;;;;;;1.70;1.60;;;;;;;35.05;29.78;100030.26;254440;1104;116575;-81
2021/06/28 07:35:41;;;;;;;2.73;2.35;;;;;;;34.98;29.98;100035.77;254390;1104;116315;-75
2021/06/28 07:40:45;;;;;;;1.70;1.60;;;;;;;34.70;28.87;100024.59;255339;1104;115536;-81
2021/06/28 07:45:49;;;;;;;2.66;2.46;;;;;;;34.34;30.34;100029.18;255238;1103;116415;-76
2021/06/28 07:50:55;;;;;;;2.50;2.13;;;;;;;34.28;29.68;100030.70;254197;1104;116835;-79
2021/06/28 07:56:14;;;;;;;2.83;1.87;;;;;;;34.08;30.09;100022.70;254865;1104;116404;-80
2021/06/28 08:01:17;;;;;;;6.00;2.60;;;;;;;33.55;30.92;100027.83;254891;1104;115529;-77
2021/06/28 08:06:21;;;;;;;2.25;2.15;;;;;;;33.45;30.82;100020.23;254694;1104;115180;-76
2021/06/28 08:11:24;;;;;;;;;;;;;;;33.41;30.50;100027.69;256721;1104;116014;-76
2021/06/28 08:16:28;;;;;;;2.40;2.20;;;;;;;32.89;30.51;100024.01;258043;1103;101993;-78
2021/06/28 08:21:31;;;;;;;4.30;2.55;;;;;;;32.68;30.59;100023.75;257261;1104;115622;-77
2021/06/28 08:26:35;;;;;;;2.63;2.43;;;;;;;32.47;30.83;100027.81;257341;1104;115165;-79
2021/06/28 08:31:40;;;;;;;3.90;2.08;;;;;;;32.47;31.49;100022.30;255250;1104;115456;-79
2021/06/28 08:36:49;;;;;;;3.73;2.88;;;;;;;32.50;32.02;100026.27;254411;1104;115964;-78
2021/06/28 08:41:53;;;;;;;2.93;2.40;;;;;;;32.37;31.76;100019.42;255380;1104;115957;-78
2021/06/28 08:46:58;;;;;;;3.83;2.80;;;;;;;32.17;32.06;100028.95;254840;1104;115949;-79
2021/06/28 08:52:03;;;;;;;2.97;2.40;;;;;;;31.67;32.28;100015.23;254174;1104;115646;-79
2021/06/28 08:57:06;;;;;;;5.30;3.45;;;;;;;31.73;32.70;100019.27;254375;1104;116105;-82
2021/06/28 09:02:09;;;;;;;3.95;3.35;;;;;;;31.82;31.97;100018.98;254320;1104;118843;-77
2021/06/28 09:07:21;;;;;;;3.93;3.30;;;;;;;31.95;33.06;100022.34;255320;1104;116027;-74
2021/06/28 09:12:25;;;;;;;4.10;2.40;;;;;;;32.07;32.30;100014.66;255015;1103;115876;-77
2021/06/28 09:17:30;;;;;;;4.48;2.78;;;;;;;32.11;32.64;100003.65;254426;1104;116477;-76
2021/06/28 09:22:33;;;;;;;3.15;2.90;;;;;;;31.91;32.22;100015.97;254584;1099;116486;-74
2021/06/28 09:27:45;;;;;;;24.88;4.83;;;;;;;31.78;32.08;100007.14;254455;1104;115695;-76
2021/06/28 09:32:54;;;;;;;4.53;3.20;;;;;;;31.54;32.93;100001.97;254901;1104;115978;-76
2021/06/28 09:38:06;;;;;;;3.05;2.75;;;;;;;31.38;32.96;100004.88;254428;1104;120652;-76
2021/06/28 09:43:28;;;;;;;3.68;3.38;;;;;;;31.47;33.45;100002.67;255098;1096;115802;-76
2021/06/28 09:48:31;;;;;;;3.75;2.68;;;;;;;31.52;32.91;99996.03;254342;1104;117341;-75
2021/06/28 09:53:35;;;;;;;5.23;2.53;;;;;;;31.08;32.62;99991.75;254377;1104;116770;-75
2021/06/28 09:58:38;;;;;;;3.65;3.15;;;;;;;30.94;33.07;99996.98;254444;1104;117315;-75
2021/06/28 10:03:43;;;;;;;3.13;2.93;;;;;;;30.68;33.75;99989.41;254351;1104;117280;-75
2021/06/28 10:08:50;;;;;;;2.48;2.33;;;;;;;30.69;33.48;99990.21;254574;1104;116899;-75
2021/06/28 10:13:58;;;;;;;3.33;3.03;;;;;;;30.95;33.72;99986.77;254783;1104;117769;-76
2021/06/28 10:19:07;;;;;;;3.20;3.00;;;;;;;30.77;33.33;99991.95;256388;1100;116963;-75
2021/06/28 10:24:11;;;;;;;2.98;2.78;;;;;;;30.64;33.54;99994.05;256711;1104;116507;-75
2021/06/28 10:29:13;;;;;;;4.93;3.48;;;;;;;30.80;33.41;99982.97;254514;1104;117548;-75
2021/06/28 10:34:16;;;;;;;3.68;2.95;;;;;;;31.06;33.68;99983.05;256320;1104;116967;-75
2021/06/28 10:39:31;;;;;;;4.80;2.98;;;;;;;31.26;32.89;99985.77;254536;1104;117260;-75
2021/06/28 10:44:50;;;;;;;4.08;3.30;;;;;;;30.54;32.84;99980.06;254294;1098;117258;-75
2021/06/28 10:49:54;;;;;;;3.70;3.40;;;;;;;30.40;33.53;99977.81;254788;1104;116624;-75
2021/06/28 10:54:58;;;;;;;3.70;3.40;;;;;;;30.45;33.51;99981.08;254341;1104;117701;-75
2021/06/28 11:00:01;;;;;;;3.08;2.90;;;;;;;30.36;32.87;99971.44;254390;1104;116386;-73
2021/06/28 11:05:08;;;;;;;3.13;2.93;;;;;;;30.61;33.81;99955.45;254313;1104;116268;-75
2021/06/28 11:10:35;;;;;;;3.35;3.15;;;;;;;30.83;33.57;99951.97;254435;1104;116807;-75
2021/06/28 11:15:40;;;;;;;3.40;3.10;;;;;;;30.69;34.43;99962.69;254382;1098;116276;-75
2021/06/28 11:20:52;;;;;;;3.40;3.10;;;;;;;30.51;33.53;99958.78;254110;1104;115848;-74
2021/06/28 11:25:57;;;;;;;3.60;3.23;;;;;;;30.46;33.52;99949.66;254486;1104;115716;-75
2021/06/28 11:31:09;;;;;;;3.60;3.05;;;;;;;30.30;33.88;99946.17;254694;1099;116927;-74
2021/06/28 11:36:36;;;;;;;3.90;3.60;;;;;;;29.98;33.81;99944.67;254474;1103;116426;-74
2021/06/28 11:41:39;;;;;;;4.75;3.63;;;;;;;29.81;33.72;99943.94;254451;1104;115746;-74
2021/06/28 11:46:42;;;;;;;4.05;3.53;;;;;;;29.67;34.52;99942.80;254736;1104;116027;-74
2021/06/28 11:51:48;;;;;;;4.20;3.80;;;;;;;29.62;33.99;99941.16;254351;1104;116243;-74
2021/06/28 11:57:02;;;;;;;4.23;3.93;;;;;;;29.41;35.42;99935.13;255189;1104;115542;-74
2021/06/28 12:02:06;;;;;;;8.10;3.90;;;;;;;29.04;35.34;99935.41;254454;1100;116518;-75
2021/06/28 12:07:12;;;;;;;4.50;4.13;;;;;;;28.94;35.87;99924.94;254475;1104;116319;-75
2021/06/28 12:12:17;;;;;;;4.45;3.70;;;;;;;29.35;36.76;99936.55;255424;1104;115397;-74
2021/06/28 12:17:22;;;;;;;8.35;3.68;;;;;;;29.09;35.73;99935.11;255305;1104;116162;-74
2021/06/28 12:22:32;;;;;;;4.40;4.10;;;;;;;29.37;35.46;99918.54;255590;1104;114730;-75
2021/06/28 12:27:39;;;;;;;4.15;3.75;;;;;;;29.71;36.17;99925.25;257266;1104;115312;-74
2021/06/28 12:32:46;;;;;;;4.27;3.57;;;;;;;29.81;35.93;99926.65;255146;1104;115507;-75
2021/06/28 12:37:55;;;;;;;3.70;3.28;;;;;;;29.56;34.40;99922.55;256213;1104;115180;-75
2021/06/28 12:43:12;;;;;;;3.08;2.88;;;;;;;29.32;34.76;99929.81;254699;1104;114942;-75
2021/06/28 12:48:23;;;;;;;3.45;3.15;;;;;;;29.04;34.76;99918.14;255841;1104;115702;-74
2021/06/28 12:53:28;;;;;;;3.40;3.20;;;;;;;28.93;35.23;99917.06;254237;1104;115365;-74
2021/06/28 12:58:44;;;;;;;4.13;3.50;;;;;;;28.70;35.01;99911.34;254375;1100;116186;-74
2021/06/28 13:03:48;;;;;;;3.18;2.90;;;;;;;28.32;35.31;99915.41;254427;1104;117141;-75
2021/06/28 13:08:51;;;;;;;2.43;2.33;;;;;;;27.96;35.79;99902.59;254406;1104;116593;-74
2021/06/28 13:14:16;;;;;;;3.95;3.65;;;;;;;27.64;36.67;99906.30;254617;1104;116753;-74
2021/06/28 13:19:19;;;;;;;3.45;2.80;;;;;;;27.42;36.70;99907.55;254503;1104;117982;-74
2021/06/28 13:24:29;;;;;;;4.90;3.30;;;;;;;27.31;37.34;99898.20;255433;1096;116205;-75
2021/06/28 13:29:40;;;;;;;3.25;3.05;;;;;;;27.76;37.25;99896.14;254341;1099;116910;-76
2021/06/28 13:34:46;;;;;;;4.53;3.03;;;;;;;27.62;36.96;99892.95;254633;1100;115999;-75
2021/06/28 13:39:50;;;;;;;3.25;2.95;;;;;;;27.72;36.83;99891.69;254389;1104;116415;-75
2021/06/28 13:44:58;;;;;;;3.13;2.93;;;;;;;27.39;36.66;99889.08;254755;1104;117322;-74
2021/06/28 13:50:12;;;;;;;3.85;2.98;;;;;;;27.49;37.05;99875.73;254363;1104;116915;-74
2021/06/28 13:55:16;;;;;;;1.88;1.83;;;;;;;27.83;36.72;99877.16;254834;1104;117321;-73
2021/06/28 14:00:23;;;;;;;2.13;1.90;;;;;;;28.13;36.23;99869.41;254409;1104;116779;-74
2021/06/28 14:05:27;;;;;;;3.65;2.30;;;;;;;27.87;35.61;99866.30;255017;1100;115261;-74
2021/06/28 14:10:30;;;;;;;2.80;2.58;;;;;;;27.60;35.69;99861.58;254938;1104;115221;-74
2021/06/28 14:15:35;;;;;;;1.33;1.30;;;;;;;27.58;35.22;99853.70;255461;1104;115816;-75
2021/06/28 14:20:38;;;;;;;2.10;2.00;;;;;;;27.77;35.59;99848.43;255215;1104;116866;-74
2021/06/28 14:25:42;;;;;;;3.18;2.90;;;;;;;27.74;35.61;99851.86;257417;1104;117038;-75
2021/06/28 14:30:46;;;;;;;2.60;2.40;;;;;;;27.71;35.84;99852.55;257477;1103;116486;-75
2021/06/28 14:35:52;;;;;;;2.55;2.13;;;;;;;27.73;35.67;99855.74;254573;1099;116789;-74
2021/06/28 14:40:56;;;;;;;2.73;2.53;;;;;;;27.63;36.07;99858.95;254322;1104;116808;-74
2021/06/28 14:46:00;;;;;;;2.08;1.98;;;;;;;27.87;36.05;99854.55;254431;1104;116039;-74
2021/06/28 14:51:03;;;;;;;2.37;2.20;;;;;;;27.82;36.08;99864.59;254425;1104;116786;-74
2021/06/28 14:56:06;;;;;;;2.88;2.68;;;;;;;27.57;35.77;99862.23;254382;1104;117274;-74
2021/06/28 15:01:10;;;;;;;1.83;1.73;;;;;;;27.33;35.72;99857.59;255261;1104;116437;-74
2021/06/28 15:06:13;;;;;;;3.38;2.20;;;;;;;27.29;36.30;99862.16;254450;1104;116048;-75
2021/06/28 15:11:16;;;;;;;1.93;1.83;;;;;;;27.34;35.99;99848.24;254447;1104;117036;-74
2021/06/28 15:16:19;;;;;;;2.38;2.28;;;;;;;27.33;36.34;99841.17;254084;1104;117027;-74
2021/06/28 15:21:33;;;;;;;2.10;2.00;;;;;;;27.06;36.73;99838.00;254403;1104;117424;-74
2021/06/28 15:26:35;;;;;;;2.20;2.10;;;;;;;26.90;36.53;99834.33;254596;1104;117091;-74
2021/06/28 15:31:39;;;;;;;2.20;1.98;;;;;;;26.96;37.01;99829.44;254637;1104;117439;-74
2021/06/28 15:36:43;;;;;;;2.63;2.43;;;;;;;27.10;37.28;99829.91;255029;1098;117472;-74
2021/06/28 15:41:46;;;;;;;2.70;1.93;;;;;;;27.20;37.27;99820.45;254344;1104;116192;-74
2021/06/28 15:46:49;;;;;;;2.50;2.30;;;;;;;27.29;37.43;99829.31;254454;1104;215510;-75
2021/06/28 15:51:53;;;;;;;2.78;2.60;;;;;;;27.28;36.99;99814.83;254197;1104;117146;-74
2021/06/28 15:56:57;;;;;;;2.08;1.98;;;;;;;27.21;36.94;99819.30;254323;1104;117130;-75
2021/06/28 16:02:00;;;;;;;3.38;2.28;;;;;;;27.13;36.87;99808.13;254417;1104;117277;-75
2021/06/28 16:07:03;;;;;;;3.30;2.78;;;;;;;27.07;37.32;99798.55;254028;1104;116260;-74
2021/06/28 16:12:08;;;;;;;4.28;2.30;;;;;;;26.97;37.32;99800.94;254357;1104;116525;-74
2021/06/28 16:17:11;;;;;;;3.07;2.77;;;;;;;26.89;38.19;99799.91;254513;1104;115954;-74
2021/06/28 16:22:16;;;;;;;2.85;2.65;;;;;;;26.80;38.27;99796.48;254384;1103;116155;-74
2021/06/28 16:27:21;;;;;;;5.65;2.35;;;;;;;26.73;38.16;99799.77;256195;1103;115766;-75
2021/06/28 16:32:27;;;;;;;2.60;2.50;;;;;;;26.65;38.21;99795.20;257460;1103;114894;-75
2021/06/28 16:37:29;;;;;;;19.43;2.85;;;;;;;26.55;37.98;99790.20;257065;1104;115417;-75
2021/06/28 16:42:36;;;;;;;3.33;2.85;;;;;;;26.54;38.90;99790.53;257411;1104;115522;-75
2021/06/28 16:47:40;;;;;;;3.53;2.27;;;;;;;26.40;38.95;99794.38;255688;1104;114872;-74
2021/06/28 16:52:48;;;;;;;5.63;2.95;;;;;;;26.30;40.03;99783.86;254252;1104;115751;-74
2021/06/28 16:57:54;;;;;;;3.10;2.68;;;;;;;26.15;39.28;99795.42;255090;1104;116098;-74
2021/06/28 17:03:00;;;;;;;3.00;2.65;;;;;;;26.03;40.67;99787.97;254182;1104;115093;-74
2021/06/28 17:08:03;;;;;;;3.20;2.58;;;;;;;25.92;41.21;99791.48;254271;1104;115317;-74
2021/06/28 17:13:06;;;;;;;3.00;2.80;;;;;;;25.82;41.25;99785.28;254803;1104;115383;-73
2021/06/28 17:18:09;;;;;;;4.57;3.10;;;;;;;25.74;41.82;99777.95;255239;1099;114651;-74
2021/06/28 17:23:11;;;;;;;4.58;2.85;;;;;;;25.65;42.51;99774.53;254857;1104;115191;-74
2021/06/28 17:28:15;;;;;;;3.67;3.23;;;;;;;25.54;43.15;99781.48;254332;1104;116121;-74
2021/06/28 17:33:17;;;;;;;4.47;2.80;;;;;;;25.40;44.07;99776.27;254386;1104;115857;-74
2021/06/28 17:38:19;;;;;;;3.30;3.10;;;;;;;25.28;44.69;99775.41;254367;1104;115536;-74
2021/06/28 17:43:22;;;;;;;3.23;3.03;;;;;;;25.12;45.08;99773.25;254460;1104;115392;-74
2021/06/28 17:48:24;;;;;;;3.28;2.93;;;;;;;24.97;45.15;99768.38;254368;1100;115482;-74
2021/06/28 17:53:29;;;;;;;3.03;2.83;;;;;;;24.82;46.07;99769.70;254283;1098;115268;-73
2021/06/28 17:58:32;;;;;;;3.60;3.33;;;;;;;24.63;46.13;99771.25;254765;1104;114894;-74
2021/06/28 18:03:36;;;;;;;7.40;3.98;;;;;;;24.43;46.53;99770.84;254274;1104;115348;-74
2021/06/28 18:08:42;;;;;;;3.53;3.28;;;;;;;24.24;47.15;99769.58;255457;1104;115175;-74
2021/06/28 18:13:45;;;;;;;5.00;3.63;;;;;;;24.04;47.57;99771.07;255465;1104;115133;-74
2021/06/28 18:18:48;;;;;;;4.13;3.78;;;;;;;23.85;48.63;99772.20;257487;1103;115522;-75
2021/06/28 18:24:01;;;;;;;3.65;3.38;;;;;;;23.66;49.19;99771.74;255461;1098;114815;-74
2021/06/28 18:29:03;;;;;;;3.77;3.57;;;;;;;23.52;49.49;99760.20;256462;1104;114795;-74
2021/06/28 18:34:07;;;;;;;4.13;3.83;;;;;;;23.33;50.72;99756.97;254442;1100;115372;-74
2021/06/28 18:39:13;;;;;;;4.10;3.80;;;;;;;23.08;51.42;99761.27;254825;1104;115902;-74
2021/06/28 18:44:21;;;;;;;4.43;4.13;;;;;;;22.85;51.97;99760.58;255875;1104;115360;-74
2021/06/28 18:49:25;;;;;;;5.08;4.60;;;;;;;22.67;52.34;99772.45;254470;1104;115245;-74
2021/06/28 18:54:29;;;;;;;5.30;4.90;;;;;;;22.47;53.03;99771.09;254449;1104;115758;-73
2021/06/28 18:59:32;;;;;;;4.10;3.80;;;;;;;22.22;53.43;99771.77;255191;1103;114949;-73
2021/06/28 19:04:38;;;;;;;4.40;3.97;;;;;;;21.96;54.05;99777.01;254259;1103;116033;-73
2021/06/28 19:09:42;;;;;;;4.28;4.00;;;;;;;21.71;54.99;99772.97;255413;1103;115958;-73
2021/06/28 19:14:44;;;;;;;6.80;4.08;;;;;;;21.40;55.28;99776.38;254306;1104;115363;-73
2021/06/28 19:19:49;;;;;;;5.70;4.35;;;;;;;21.03;55.81;99780.16;254674;1104;115654;-73
2021/06/28 19:24:53;;;;;;;5.40;4.43;;;;;;;20.70;56.47;99784.88;254354;1104;115090;-73
2021/06/28 19:29:57;;;;;;;4.55;4.15;;;;;;;20.42;57.12;99786.75;254322;1104;115455;-73
2021/06/28 19:35:01;;;;;;;9.10;4.95;;;;;;;20.22;57.55;99797.08;254478;1100;114617;-73
2021/06/28 19:40:13;;;;;;;4.65;4.25;;;;;;;20.08;57.79;99797.86;254378;1104;115678;-73
2021/06/28 19:45:17;;;;;;;8.88;4.65;;;;;;;19.97;58.13;99798.31;254447;1104;116650;-73
2021/06/28 19:50:21;;;;;;;7.65;4.20;;;;;;;19.71;58.67;99804.12;254435;1104;115385;-73
2021/06/28 19:55:25;;;;;;;5.73;4.83;;;;;;;19.44;59.04;99812.05;254280;1104;115710;-73
2021/06/28 20:00:28;;;;;;;6.48;5.63;;;;;;;19.25;59.60;99805.83;255734;1104;116188;-74
2021/06/28 20:05:31;;;;;;;4.48;4.18;;;;;;;19.13;60.13;99808.94;255671;1104;115249;-79
2021/06/28 20:10:34;;;;;;;5.43;4.48;;;;;;;19.03;60.12;99809.86;254245;1104;115751;-73
2021/06/28 20:15:37;;;;;;;7.48;5.50;;;;;;;18.90;60.57;99809.77;254524;1104;115508;-73
2021/06/28 20:20:44;;;;;;;7.30;5.28;;;;;;;18.77;60.87;99812.05;254290;1104;117380;-71
2021/06/28 20:25:49;;;;;;;6.88;5.08;;;;;;;18.61;61.29;99809.81;257239;1104;114988;-76
2021/06/28 20:30:53;;;;;;;9.10;5.25;;;;;;;18.43;61.43;99812.09;257141;1104;115082;-73
2021/06/28 20:35:57;;;;;;;6.25;5.55;;;;;;;18.31;61.87;99810.88;256859;1104;114893;-75
2021/06/28 20:41:01;;;;;;;6.03;5.55;;;;;;;18.24;62.26;99819.30;256619;1104;117195;-73
2021/06/28 20:46:06;;;;;;;10.00;5.87;;;;;;;18.26;62.58;99814.42;255056;1104;115352;-73
2021/06/28 20:51:11;;;;;;;5.10;4.70;;;;;;;18.20;62.55;99812.05;255244;1104;115785;-76
2021/06/28 20:56:13;;;;;;;6.43;5.38;;;;;;;18.11;62.63;99817.23;254325;1100;115789;-76
2021/06/28 21:01:16;;;;;;;15.58;5.33;;;;;;;17.87;63.04;99813.65;254128;1104;118614;-74
2021/06/28 21:06:19;;;;;;;6.68;5.58;;;;;;;17.67;63.36;99809.21;254325;1104;116168;-73
2021/06/28 21:11:22;;;;;;;7.05;6.25;;;;;;;17.54;63.88;99821.38;254218;1104;116213;-71
2021/06/28 21:16:25;;;;;;;7.23;6.50;;;;;;;17.43;64.12;99815.23;254359;1104;116386;-71
2021/06/28 21:21:28;;;;;;;10.00;6.60;;;;;;;17.29;64.19;99825.02;254221;1104;116112;-70
2021/06/28 21:26:31;;;;;;;8.18;6.10;;;;;;;17.17;64.75;99811.05;254613;1099;116743;-73
2021/06/28 21:31:34;;;;;;;10.28;6.20;;;;;;;17.02;64.96;99817.31;254399;1100;117044;-70
2021/06/28 21:36:37;;;;;;;7.93;4.43;;;;;;;16.90;65.13;99821.38;254530;1104;115531;-71
2021/06/28 21:41:45;;;;;;;8.08;7.35;;;;;;;16.77;65.66;99822.78;254482;1104;135954;-73
2021/06/28 21:46:49;;;;;;;11.73;6.13;;;;;;;16.81;66.13;99823.85;254399;1104;117730;-72
2021/06/28 21:51:56;;;;;;;7.37;6.67;;;;;;;16.70;65.75;99822.25;254722;1099;116617;-72
2021/06/28 21:57:00;;;;;;;10.85;7.33;;;;;;;16.66;66.55;99827.38;254329;1099;116480;-75
2021/06/28 22:02:03;;;;;;;8.15;7.45;;;;;;;16.69;66.27;99828.72;254745;1104;115486;-73
2021/06/28 22:07:07;;;;;;;7.78;7.05;;;;;;;16.60;66.32;99825.73;254287;1104;114701;-72
2021/06/28 22:12:10;;;;;;;10.23;7.33;;;;;;;16.49;66.73;99824.96;254724;1099;116056;-73
2021/06/28 22:17:17;;;;;;;8.65;7.00;;;;;;;16.36;66.89;99814.74;254700;1103;115610;-72
2021/06/28 22:22:21;;;;;;;7.50;6.87;;;;;;;16.29;66.88;99811.52;255506;1098;116403;-74
2021/06/28 22:27:25;;;;;;;12.07;7.30;;;;;;;16.19;67.32;99811.53;255531;1104;115877;-73
2021/06/28 22:32:28;;;;;;;9.37;8.30;;;;;;;16.12;67.39;99814.49;255648;1104;211452;-73
2021/06/28 22:37:32;;;;;;;11.88;8.40;;;;;;;16.11;67.82;99807.50;254271;1104;116774;-73
2021/06/28 22:42:37;;;;;;;8.40;7.55;;;;;;;16.13;67.57;99812.61;257180;1104;117644;-72
2021/06/28 22:47:41;;;;;;;9.50;8.50;;;;;;;16.15;67.63;99810.46;256278;1104;116210;-69
2021/06/28 22:52:43;;;;;;;10.08;7.40;;;;;;;16.01;67.60;99804.80;257473;1104;116385;-70
2021/06/28 22:57:48;;;;;;;9.13;7.70;;;;;;;15.90;67.81;99802.39;254391;1104;117497;-72
2021/06/28 23:02:51;;;;;;;8.48;7.28;;;;;;;15.78;68.25;99802.64;255581;1104;117478;-72
2021/06/28 23:07:55;;;;;;;9.80;8.90;;;;;;;15.70;68.39;99808.53;254464;1104;116316;-73
2021/06/28 23:12:59;;;;;;;15.03;8.25;;;;;;;15.64;68.30;99794.27;255035;1104;116013;-72
2021/06/28 23:18:02;;;;;;;10.68;9.00;;;;;;;15.68;68.83;99794.55;254337;1104;138142;-71
2021/06/28 23:23:06;;;;;;;11.90;9.30;;;;;;;15.66;68.30;99792.13;254410;1103;115545;-71